createdAt,value
2017-11-15T00:07:50.423Z,97.60
2017-11-15T00:10:17.964Z,97.80
2017-11-15T00:12:45.468Z,97.80
2017-11-15T00:15:14.132Z,97.60
2017-11-15T00:17:41.661Z,97.60
2017-11-15T00:20:09.182Z,97.60
2017-11-15T00:22:36.710Z,97.70
2017-11-15T00:25:04.244Z,97.70
2017-11-15T00:27:31.775Z,97.60
2017-11-15T00:29:59.300Z,97.60
2017-11-15T00:32:26.894Z,97.60
2017-11-15T00:34:54.818Z,97.70
2017-11-15T00:37:22.336Z,97.70
2017-11-15T00:39:49.861Z,97.80
2017-11-15T00:42:17.772Z,98.00
2017-11-15T00:44:45.308Z,98.00
2017-11-15T00:47:13.679Z,98.00
2017-11-15T00:49:41.204Z,98.00
2017-11-15T00:52:08.734Z,98.10
2017-11-15T00:54:36.258Z,98.00
2017-11-15T00:57:03.799Z,98.10
2017-11-15T00:59:31.323Z,98.10
2017-11-15T01:01:58.868Z,98.00
2017-11-15T01:04:26.398Z,98.10
2017-11-15T01:06:53.974Z,98.10
2017-11-15T01:09:21.498Z,98.20
2017-11-15T01:11:49.032Z,98.10
2017-11-15T01:14:16.584Z,98.30
2017-11-15T01:16:44.511Z,98.40
2017-11-15T01:19:12.108Z,98.40
2017-11-15T01:21:39.639Z,98.40
2017-11-15T01:24:07.219Z,98.50
2017-11-15T01:26:35.129Z,98.50
2017-11-15T01:29:02.656Z,98.50
2017-11-15T01:31:30.203Z,98.50
2017-11-15T01:33:57.717Z,98.40
2017-11-15T01:36:25.267Z,98.30
2017-11-15T01:38:52.813Z,98.30
2017-11-15T01:41:20.376Z,98.50
2017-11-15T01:43:48.297Z,98.40
2017-11-15T01:46:15.806Z,98.40
2017-11-15T01:48:43.345Z,98.40
2017-11-15T01:51:11.646Z,98.50
2017-11-15T01:53:39.181Z,98.50
2017-11-15T01:56:06.704Z,98.50
2017-11-15T01:58:34.232Z,98.70
2017-11-15T02:01:13.900Z,98.50
2017-11-15T02:03:41.473Z,98.50
2017-11-15T02:06:09.403Z,98.50
2017-11-15T02:08:36.931Z,98.50
2017-11-15T02:11:04.461Z,98.50
2017-11-15T02:13:32.391Z,98.50
2017-11-15T02:15:59.950Z,98.50
2017-11-15T02:18:27.870Z,98.60
2017-11-15T02:20:55.402Z,98.50
2017-11-15T02:23:22.923Z,98.70
2017-11-15T02:25:50.451Z,98.70
2017-11-15T02:28:17.993Z,98.70
2017-11-15T02:30:45.516Z,98.90
2017-11-15T02:33:13.049Z,98.80
2017-11-15T02:35:40.976Z,99.00
2017-11-15T02:38:08.507Z,99.00
2017-11-15T02:40:36.056Z,99.00
2017-11-15T02:43:03.584Z,98.80
2017-11-15T02:45:31.146Z,99.00
2017-11-15T02:47:58.661Z,98.90
2017-11-15T02:50:26.209Z,99.00
2017-11-15T02:52:53.772Z,99.10
2017-11-15T02:55:21.298Z,99.00
2017-11-15T02:57:49.244Z,99.00
2017-11-15T03:00:16.777Z,98.90
2017-11-15T03:02:44.312Z,98.90
2017-11-15T03:05:11.888Z,98.90
2017-11-15T03:07:39.413Z,99.00
2017-11-15T03:10:06.990Z,99.00
2017-11-15T03:12:34.510Z,99.00
2017-11-15T03:15:02.043Z,99.00
2017-11-15T03:17:29.587Z,99.00
2017-11-15T03:19:57.506Z,98.70
2017-11-15T03:22:25.063Z,98.70
2017-11-15T03:24:52.961Z,98.60
2017-11-15T03:27:20.472Z,98.60
2017-11-15T03:29:48.003Z,98.70
2017-11-15T03:32:15.531Z,98.80
2017-11-15T03:34:43.093Z,98.70
2017-11-15T03:37:10.628Z,98.80
2017-11-15T03:39:38.166Z,98.70
2017-11-15T03:42:05.705Z,98.70
2017-11-15T03:44:33.234Z,98.70
2017-11-15T03:47:00.785Z,98.70
2017-11-15T03:49:28.308Z,98.70
2017-11-15T03:51:56.241Z,98.60
2017-11-15T03:54:23.763Z,98.60
2017-11-15T03:56:51.289Z,98.70
2017-11-15T03:59:18.821Z,98.50
2017-11-15T04:01:46.347Z,98.50
2017-11-15T04:04:13.874Z,98.70
2017-11-15T04:06:41.808Z,98.60
2017-11-15T04:09:09.381Z,98.60
2017-11-15T04:11:36.892Z,98.70
2017-11-15T04:14:04.400Z,98.80
2017-11-15T04:16:32.325Z,98.80
2017-11-15T04:18:59.839Z,98.70
2017-11-15T04:21:27.384Z,98.90
2017-11-15T04:23:55.312Z,98.70
2017-11-15T04:26:22.863Z,98.70
2017-11-15T04:28:50.415Z,98.80
2017-11-15T04:31:17.920Z,98.70
2017-11-15T04:33:45.877Z,98.60
2017-11-15T04:36:13.408Z,98.60
2017-11-15T04:38:41.045Z,98.70
2017-11-15T04:41:08.604Z,98.70
2017-11-15T04:43:36.130Z,98.70
2017-11-15T04:46:03.678Z,98.70
2017-11-15T04:48:31.196Z,98.70
2017-11-15T04:50:58.729Z,98.60
2017-11-15T04:53:26.263Z,98.70
2017-11-15T04:55:53.826Z,98.70
2017-11-15T04:58:21.362Z,98.60
2017-11-15T05:00:49.289Z,98.60
2017-11-15T05:03:16.927Z,98.60
2017-11-15T05:05:44.454Z,98.80
2017-11-15T05:08:11.996Z,98.90
2017-11-15T05:10:39.519Z,99.10
2017-11-15T05:13:07.440Z,99.00
2017-11-15T05:15:34.947Z,99.10
2017-11-15T05:18:02.495Z,99.00
2017-11-15T05:20:30.012Z,98.90
2017-11-15T05:22:57.542Z,99.00
2017-11-15T05:25:25.460Z,98.90
2017-11-15T05:27:53.354Z,98.80
2017-11-15T05:30:20.931Z,98.80
2017-11-15T05:32:48.862Z,98.70
2017-11-15T05:35:16.417Z,98.70
2017-11-15T05:37:43.943Z,98.70
2017-11-15T05:40:11.497Z,98.70
2017-11-15T05:42:39.037Z,98.80
2017-11-15T05:45:06.554Z,98.80
2017-11-15T05:47:34.108Z,98.80
2017-11-15T05:50:01.625Z,98.80
2017-11-15T05:52:29.158Z,98.70
2017-11-15T05:54:56.680Z,98.80
2017-11-15T05:57:24.243Z,98.90
2017-11-15T05:59:51.771Z,99.00
2017-11-15T06:02:19.695Z,99.10
2017-11-15T06:04:47.244Z,99.10
2017-11-15T06:07:14.760Z,99.10
2017-11-15T06:09:42.708Z,98.90
2017-11-15T06:12:10.245Z,99.10
2017-11-15T06:14:38.286Z,99.10
2017-11-15T06:17:05.749Z,99.00
2017-11-15T06:19:33.676Z,99.20
2017-11-15T06:22:01.221Z,99.10
2017-11-15T06:24:28.837Z,99.20
2017-11-15T06:26:56.307Z,99.20
2017-11-15T06:29:23.969Z,99.20
2017-11-15T06:31:51.429Z,99.10
2017-11-15T06:34:19.010Z,99.30
2017-11-15T06:36:46.546Z,99.40
2017-11-15T06:39:14.048Z,99.10
2017-11-15T06:41:41.578Z,99.40
2017-11-15T06:44:09.114Z,99.40
2017-11-15T06:46:36.627Z,99.40
2017-11-15T06:49:04.187Z,99.30
2017-11-15T06:51:31.716Z,99.20
2017-11-15T06:53:59.237Z,99.40
2017-11-15T06:56:27.407Z,99.50
2017-11-15T06:58:54.932Z,99.50
2017-11-15T07:01:22.476Z,99.40
2017-11-15T07:03:49.989Z,99.20
2017-11-15T07:06:17.929Z,99.20
2017-11-15T07:08:45.449Z,99.20
2017-11-15T07:11:12.957Z,99.20
2017-11-15T07:13:40.488Z,99.20
2017-11-15T07:16:08.019Z,99.30
2017-11-15T07:18:35.960Z,99.30
2017-11-15T07:21:03.473Z,99.40
2017-11-15T07:23:31.048Z,99.50
2017-11-15T07:25:58.561Z,99.40
2017-11-15T07:28:26.084Z,99.30
2017-11-15T07:30:54.008Z,99.40
2017-11-15T07:33:21.543Z,99.40
2017-11-15T07:35:49.109Z,99.40
2017-11-15T07:38:16.621Z,99.30
2017-11-15T07:40:44.564Z,99.30
2017-11-15T07:43:12.106Z,99.30
2017-11-15T07:45:39.623Z,99.20
2017-11-15T07:48:07.168Z,99.20
2017-11-15T07:50:34.693Z,99.30
2017-11-15T07:53:02.228Z,99.30
2017-11-15T07:55:29.748Z,99.40
2017-11-15T07:57:57.701Z,99.40
2017-11-15T08:00:25.226Z,99.40
2017-11-15T08:02:52.755Z,99.40
2017-11-15T08:05:20.299Z,99.50
2017-11-15T08:07:47.809Z,99.50
2017-11-15T08:10:15.352Z,99.70
2017-11-15T08:12:42.875Z,99.70
2017-11-15T08:15:10.495Z,99.70
2017-11-15T08:17:38.001Z,99.50
2017-11-15T08:20:05.548Z,99.60
2017-11-15T08:22:33.077Z,99.40
2017-11-15T08:25:01.013Z,99.40
2017-11-15T08:27:28.546Z,99.40
2017-11-15T08:29:56.066Z,99.40
2017-11-15T08:32:24.019Z,99.60
2017-11-15T08:34:51.533Z,99.60
2017-11-15T08:37:19.060Z,99.50
2017-11-15T08:39:46.592Z,99.40
2017-11-15T08:42:14.165Z,99.40
2017-11-15T08:44:41.686Z,99.00
2017-11-15T08:47:09.617Z,99.10
2017-11-15T08:49:37.532Z,99.20
2017-11-15T08:52:05.084Z,99.20
2017-11-15T08:54:32.611Z,99.40
2017-11-15T08:57:00.173Z,99.40
2017-11-15T08:59:27.728Z,99.30
2017-11-15T09:01:55.255Z,99.30
2017-11-15T09:04:22.804Z,99.50
2017-11-15T09:06:50.322Z,99.40
2017-11-15T09:09:17.867Z,99.30
2017-11-15T09:11:45.408Z,99.30
2017-11-15T09:14:12.999Z,99.20
2017-11-15T09:16:40.521Z,99.20
2017-11-15T09:19:08.060Z,99.20
2017-11-15T09:21:35.572Z,99.00
2017-11-15T09:24:03.097Z,98.90
2017-11-15T09:26:30.608Z,99.00
2017-11-15T09:28:58.134Z,98.90
2017-11-15T09:31:25.644Z,99.10
2017-11-15T09:33:53.170Z,99.20
2017-11-15T09:36:21.076Z,99.00
2017-11-15T09:38:48.626Z,99.00
2017-11-15T09:41:16.149Z,99.10
2017-11-15T09:43:44.065Z,99.20
2017-11-15T09:46:11.594Z,99.20
2017-11-15T09:48:39.181Z,99.00
2017-11-15T09:51:07.483Z,99.30
2017-11-15T09:53:35.028Z,99.30
2017-11-15T09:56:02.577Z,99.10
2017-11-15T09:58:30.120Z,98.90
2017-11-15T10:00:57.653Z,99.00
2017-11-15T10:03:25.358Z,99.20
2017-11-15T10:05:52.884Z,99.20
2017-11-15T10:08:20.433Z,98.90
2017-11-15T10:10:48.332Z,99.00
2017-11-15T10:13:15.860Z,99.00
2017-11-15T10:15:43.404Z,98.90
2017-11-15T10:18:10.965Z,99.00
2017-11-15T10:20:38.890Z,99.00
2017-11-15T10:23:06.410Z,99.00
2017-11-15T10:25:33.960Z,99.00
2017-11-15T10:28:01.486Z,98.60
2017-11-15T10:30:29.069Z,98.60
2017-11-15T10:32:56.592Z,98.70
2017-11-15T10:35:24.139Z,98.70
2017-11-15T10:37:51.647Z,98.60
2017-11-15T10:40:19.173Z,98.80
2017-11-15T10:42:46.740Z,98.90
2017-11-15T10:45:14.272Z,98.90
2017-11-15T10:47:41.817Z,98.90
2017-11-15T10:50:09.755Z,99.10
2017-11-15T10:52:37.303Z,99.10
2017-11-15T10:55:05.247Z,98.70
2017-11-15T10:57:32.776Z,98.60
2017-11-15T11:00:00.713Z,98.50
2017-11-15T11:02:28.272Z,98.50
2017-11-15T11:04:55.800Z,98.50
2017-11-15T11:07:23.324Z,98.50
2017-11-15T11:09:51.264Z,98.50
2017-11-15T11:12:18.786Z,98.40
2017-11-15T11:14:46.333Z,98.60
2017-11-15T11:17:13.853Z,98.50
2017-11-15T11:19:41.400Z,98.20
2017-11-15T11:22:08.927Z,98.00
2017-11-15T11:24:38.384Z,98.30
2017-11-15T11:27:05.911Z,98.20
2017-11-15T11:29:33.468Z,98.40
2017-11-15T11:32:01.004Z,98.50
2017-11-15T11:34:28.567Z,98.40
2017-11-15T11:36:56.106Z,98.60
2017-11-15T11:39:23.638Z,98.50
2017-11-15T11:41:51.168Z,98.40
2017-11-15T11:44:19.090Z,98.20
2017-11-15T11:46:46.637Z,98.20
2017-11-15T11:49:14.176Z,98.10
2017-11-15T11:51:41.737Z,97.60
2017-11-15T11:54:09.266Z,97.70
2017-11-15T11:56:36.813Z,98.00
2017-11-15T11:59:04.343Z,98.00
2017-11-15T12:01:32.701Z,97.60
2017-11-15T12:04:00.214Z,97.80
2017-11-15T12:06:27.763Z,97.80
2017-11-15T12:08:55.291Z,97.60
2017-11-15T12:11:22.843Z,97.90
2017-11-15T12:13:50.361Z,97.80
2017-11-15T12:16:17.908Z,98.20
2017-11-15T12:18:45.462Z,98.00
2017-11-15T12:21:13.394Z,98.40
2017-11-15T12:23:40.904Z,98.40
2017-11-15T12:26:08.460Z,98.00
2017-11-15T12:28:35.986Z,98.00
2017-11-15T12:31:03.534Z,97.50
2017-11-15T12:33:31.044Z,97.80
2017-11-15T12:35:58.596Z,96.80
2017-11-15T12:38:26.128Z,97.20
2017-11-15T12:40:53.677Z,97.10
2017-11-15T12:43:21.239Z,96.60
2017-11-15T12:45:48.769Z,96.90
2017-11-15T12:48:16.318Z,96.90
2017-11-15T12:50:43.868Z,97.10
2017-11-15T12:53:11.418Z,97.10
2017-11-15T12:55:38.962Z,96.90
2017-11-15T12:58:06.489Z,96.90
2017-11-15T13:00:34.051Z,97.00
2017-11-15T13:03:01.565Z,97.10
2017-11-15T13:05:29.145Z,97.20
2017-11-15T13:07:56.661Z,97.30
2017-11-15T13:10:24.181Z,97.30
2017-11-15T13:12:51.727Z,96.70
2017-11-15T13:15:19.256Z,96.80
2017-11-15T13:17:46.780Z,96.80
2017-11-15T13:20:14.301Z,97.00
2017-11-15T13:22:41.844Z,97.00
2017-11-15T13:25:09.353Z,96.60
2017-11-15T13:27:37.278Z,96.40
2017-11-15T13:30:04.802Z,96.40
2017-11-15T13:32:32.353Z,96.40
2017-11-15T13:34:59.892Z,96.70
2017-11-15T13:37:27.825Z,96.50
2017-11-15T13:39:55.336Z,96.50
2017-11-15T13:42:22.876Z,96.60
2017-11-15T13:44:50.392Z,97.00
2017-11-15T13:47:17.945Z,96.60
2017-11-15T13:49:45.462Z,96.90
2017-11-15T13:52:13.006Z,96.50
2017-11-15T13:54:40.528Z,96.30
2017-11-15T13:57:08.069Z,96.40
2017-11-15T13:59:35.610Z,96.00
2017-11-15T14:02:03.152Z,96.20
2017-11-15T14:04:30.682Z,96.30
2017-11-15T14:06:58.231Z,96.30
2017-11-15T14:09:25.768Z,96.20
2017-11-15T14:11:53.325Z,96.10
2017-11-15T14:14:20.860Z,95.50
2017-11-15T14:16:48.799Z,95.60
2017-11-15T14:19:16.328Z,95.60
2017-11-15T14:21:43.872Z,95.80
2017-11-15T14:24:11.713Z,95.60
2017-11-15T14:26:39.241Z,95.60
2017-11-15T14:29:06.767Z,95.90
2017-11-15T14:31:34.690Z,96.00
2017-11-15T14:34:02.229Z,96.00
2017-11-15T14:36:29.745Z,95.20
2017-11-15T14:38:57.278Z,95.90
2017-11-15T14:41:24.810Z,95.70
2017-11-15T14:43:52.353Z,95.50
2017-11-15T14:46:19.870Z,96.00
2017-11-15T14:48:47.427Z,95.80
2017-11-15T14:51:14.941Z,95.90
2017-11-15T14:53:42.890Z,95.60
2017-11-15T14:56:10.397Z,95.60
2017-11-15T14:58:37.940Z,95.60
2017-11-15T15:01:05.858Z,95.30
2017-11-15T15:03:33.386Z,95.30
2017-11-15T15:06:00.901Z,95.20
2017-11-15T15:08:28.452Z,95.30
2017-11-15T15:10:55.957Z,95.20
2017-11-15T15:13:23.490Z,95.40
2017-11-15T15:15:51.016Z,95.70
2017-11-15T15:18:18.552Z,95.80
2017-11-15T15:20:46.067Z,95.60
2017-11-15T15:23:13.613Z,95.50
2017-11-15T15:25:41.135Z,95.60
2017-11-15T15:28:08.661Z,95.70
2017-11-15T15:30:36.592Z,95.80
2017-11-15T15:33:04.135Z,95.80
2017-11-15T15:35:31.644Z,96.00
2017-11-15T15:37:59.194Z,95.80
2017-11-15T15:40:26.717Z,95.80
2017-11-15T15:42:55.240Z,95.90
2017-11-15T15:45:22.759Z,95.90
2017-11-15T15:47:50.282Z,96.00
2017-11-15T15:50:17.816Z,96.00
2017-11-15T15:52:45.364Z,96.30
2017-11-15T15:55:12.952Z,96.00
2017-11-15T15:57:40.475Z,96.20
2017-11-15T16:00:08.020Z,96.40
2017-11-15T16:02:35.533Z,96.40
2017-11-15T16:05:03.461Z,96.40
2017-11-15T16:07:30.978Z,96.40
2017-11-15T16:09:58.514Z,96.30
2017-11-15T16:12:26.045Z,96.20
2017-11-15T16:14:53.584Z,96.10
2017-11-15T16:17:21.520Z,96.30
2017-11-15T16:19:49.055Z,96.30
2017-11-15T16:22:16.975Z,96.30
2017-11-15T16:24:44.507Z,96.30
2017-11-15T16:27:12.024Z,96.30
2017-11-15T16:29:39.557Z,96.40
2017-11-15T16:32:07.088Z,96.30
2017-11-15T16:34:35.069Z,96.50
2017-11-15T16:37:02.985Z,96.40
2017-11-15T16:39:30.526Z,96.40
2017-11-15T16:41:58.483Z,96.60
2017-11-15T16:44:26.027Z,96.60
2017-11-15T16:46:53.942Z,96.40
2017-11-15T16:49:21.472Z,96.40
2017-11-15T16:51:48.993Z,96.40
2017-11-15T16:54:16.925Z,96.60
2017-11-15T16:56:44.464Z,96.60
2017-11-15T16:59:12.012Z,96.60
2017-11-15T17:01:39.546Z,96.80
2017-11-15T17:04:07.468Z,96.80
2017-11-15T17:06:35.000Z,96.70
2017-11-15T17:09:02.535Z,96.70
2017-11-15T17:11:30.049Z,96.70
2017-11-15T17:13:57.615Z,96.60
2017-11-15T17:16:25.145Z,96.30
2017-11-15T17:18:52.666Z,96.60
2017-11-15T17:21:20.219Z,96.50
2017-11-15T17:23:47.754Z,96.30
2017-11-15T17:26:15.311Z,96.10
2017-11-15T17:28:43.231Z,95.80
2017-11-15T17:31:10.782Z,95.90
2017-11-15T17:33:38.327Z,96.10
2017-11-15T17:36:05.888Z,96.10
2017-11-15T17:38:33.413Z,95.90
2017-11-15T17:41:00.968Z,96.40
2017-11-15T17:43:28.514Z,96.10
2017-11-15T17:45:56.477Z,96.50
2017-11-15T17:48:23.994Z,96.60
2017-11-15T17:50:51.937Z,96.50
2017-11-15T17:53:19.448Z,96.50
2017-11-15T17:55:46.993Z,96.30
2017-11-15T17:58:14.506Z,96.10
2017-11-15T18:00:42.076Z,96.10
2017-11-15T18:03:09.600Z,95.80
2017-11-15T18:05:37.524Z,95.80
2017-11-15T18:08:05.046Z,95.80
2017-11-15T18:10:32.576Z,95.90
2017-11-15T18:13:00.485Z,96.00
2017-11-15T18:15:28.029Z,96.00
2017-11-15T18:17:55.544Z,95.70
2017-11-15T18:20:23.473Z,95.40
2017-11-15T18:22:51.006Z,95.40
2017-11-15T18:25:18.948Z,95.70
2017-11-15T18:27:46.484Z,95.70
2017-11-15T18:30:14.027Z,95.50
2017-11-15T18:32:41.542Z,95.40
2017-11-15T18:35:09.090Z,95.60
2017-11-15T18:37:36.602Z,95.60
2017-11-15T18:40:04.151Z,95.50
2017-11-15T18:42:31.662Z,95.40
2017-11-15T18:44:59.182Z,95.20
2017-11-15T18:47:27.106Z,95.10
2017-11-15T18:49:54.620Z,95.10
2017-11-15T18:52:22.179Z,95.20
2017-11-15T18:54:49.698Z,94.80
2017-11-15T18:57:17.252Z,94.90
2017-11-15T18:59:44.776Z,94.70
2017-11-15T19:02:12.328Z,94.90
2017-11-15T19:04:39.844Z,94.70
2017-11-15T19:07:07.372Z,94.70
2017-11-15T19:09:34.899Z,94.90
2017-11-15T19:12:02.451Z,94.70
2017-11-15T19:14:29.979Z,94.50
2017-11-15T19:16:57.520Z,94.70
2017-11-15T19:19:25.054Z,94.70
2017-11-15T19:21:53.105Z,94.60
2017-11-15T19:24:20.625Z,94.60
2017-11-15T19:26:48.171Z,94.50
2017-11-15T19:29:15.723Z,94.40
2017-11-15T19:31:43.661Z,94.10
2017-11-15T19:34:11.200Z,94.10
2017-11-15T19:36:38.751Z,94.10
2017-11-15T19:39:06.268Z,94.30
2017-11-15T19:41:33.815Z,94.30
2017-11-15T19:44:01.336Z,94.20
2017-11-15T19:46:28.881Z,94.40
2017-11-15T19:48:56.385Z,94.60
2017-11-15T19:51:23.927Z,94.40
2017-11-15T19:53:51.437Z,94.80
2017-11-15T19:56:18.964Z,94.80
2017-11-15T19:58:46.479Z,94.40
2017-11-15T20:01:14.010Z,94.10
2017-11-15T20:03:41.566Z,94.20
2017-11-15T20:06:09.108Z,93.70
2017-11-15T20:08:36.758Z,93.60
2017-11-15T20:11:04.294Z,93.80
2017-11-15T20:13:32.265Z,93.80
2017-11-15T20:15:59.799Z,93.80
2017-11-15T20:18:27.748Z,93.70
2017-11-15T20:20:55.264Z,93.70
2017-11-15T20:23:22.793Z,93.80
2017-11-15T20:25:50.301Z,93.70
2017-11-15T20:28:17.877Z,93.70
2017-11-15T20:30:45.406Z,94.00
2017-11-15T20:33:12.951Z,94.00
2017-11-15T20:35:40.475Z,94.20
2017-11-15T20:38:08.010Z,94.00
2017-11-15T20:40:35.945Z,94.60
2017-11-15T20:43:03.499Z,94.60
2017-11-15T20:45:31.416Z,94.30
2017-11-15T20:47:59.356Z,94.60
2017-11-15T20:50:26.874Z,94.60
2017-11-15T20:52:54.400Z,94.30
2017-11-15T20:55:22.301Z,94.20
2017-11-15T20:57:49.825Z,94.20
2017-11-15T21:00:17.349Z,94.50
2017-11-15T21:02:44.872Z,94.30
2017-11-15T21:05:13.719Z,93.90
2017-11-15T21:07:41.660Z,93.60
2017-11-15T21:10:09.191Z,93.60
2017-11-15T21:12:36.730Z,93.50
2017-11-15T21:15:04.632Z,93.30
2017-11-15T21:17:32.176Z,93.30
2017-11-15T21:19:59.680Z,93.30
2017-11-15T21:22:27.205Z,93.30
2017-11-15T21:24:54.704Z,93.20
2017-11-15T21:27:22.609Z,92.90
2017-11-15T21:29:50.535Z,92.70
2017-11-15T21:32:18.069Z,92.70
2017-11-15T21:34:45.605Z,92.80
2017-11-15T21:37:13.144Z,92.90
2017-11-15T21:39:40.689Z,93.20
2017-11-15T21:42:08.185Z,92.90
2017-11-15T21:44:36.117Z,92.80
2017-11-15T21:47:03.629Z,92.80
2017-11-15T21:49:31.196Z,93.00
2017-11-15T21:51:58.704Z,93.20
2017-11-15T21:54:26.647Z,93.40
2017-11-15T21:56:54.171Z,93.30
2017-11-15T21:59:21.734Z,93.40
2017-11-15T22:01:49.260Z,93.40
2017-11-15T22:04:16.791Z,92.90
2017-11-15T22:06:44.766Z,93.30
2017-11-15T22:09:12.300Z,93.30
2017-11-15T22:11:40.253Z,93.20
2017-11-15T22:14:07.762Z,93.30
2017-11-15T22:16:35.277Z,93.00
2017-11-15T22:19:03.196Z,93.20
2017-11-15T22:21:30.707Z,93.20
2017-11-15T22:23:58.245Z,93.30
2017-11-15T22:26:26.148Z,93.30
2017-11-15T22:28:53.680Z,93.30
2017-11-15T22:31:21.222Z,93.70
2017-11-15T22:33:49.125Z,93.50
2017-11-15T22:36:16.726Z,93.50
2017-11-15T22:38:44.249Z,93.30
2017-11-15T22:41:11.761Z,93.40
2017-11-15T22:43:39.685Z,93.70
2017-11-15T22:46:07.206Z,93.80
2017-11-15T22:48:34.749Z,93.70
2017-11-15T22:51:02.271Z,93.50
2017-11-15T22:53:29.788Z,93.40
2017-11-15T22:55:57.326Z,93.60
2017-11-15T22:58:24.836Z,93.80
2017-11-15T23:00:52.423Z,93.80
2017-11-15T23:03:19.938Z,93.40
2017-11-15T23:05:47.776Z,93.60
2017-11-15T23:08:15.301Z,93.50
2017-11-15T23:10:42.824Z,93.50
2017-11-15T23:13:10.363Z,93.70
2017-11-15T23:15:37.879Z,93.40
2017-11-15T23:18:05.786Z,93.50
2017-11-15T23:20:33.304Z,93.50
2017-11-15T23:23:00.810Z,93.40
2017-11-15T23:25:28.372Z,93.50
2017-11-15T23:27:55.895Z,93.60
2017-11-15T23:30:23.417Z,93.20
2017-11-15T23:32:50.980Z,93.30
2017-11-15T23:35:18.876Z,92.80
2017-11-15T23:37:46.404Z,92.80
2017-11-15T23:40:13.921Z,92.80
2017-11-15T23:42:41.456Z,92.40
2017-11-15T23:45:08.973Z,92.80
2017-11-15T23:47:36.495Z,92.90
2017-11-15T23:50:04.412Z,92.70
2017-11-15T23:52:31.935Z,92.70
2017-11-15T23:54:59.465Z,92.90
2017-11-15T23:57:27.376Z,92.90
2017-11-15T23:59:54.916Z,93.00
